MST,Max TemperatureF,Mean TemperatureF,Min TemperatureF,Max Dew PointF,MeanDew PointF,Min DewpointF,Max Humidity, Mean Humidity, Min Humidity, Max Sea Level PressureIn, Mean Sea Level PressureIn, Min Sea Level PressureIn, Max VisibilityMiles, Mean VisibilityMiles, Min VisibilityMiles, Max Wind SpeedMPH, Mean Wind SpeedMPH, Max Gust SpeedMPH,PrecipitationIn, CloudCover, Events, WindDirDegrees
2012-11-1,37,34,32,37,33,27,100,98,80,30.07,29.94,29.86,10,3,0,26,17,34,0.00,8,Fog,130
2012-11-2,42,37,32,41,34,27,100,96,80,30.13,30.00,29.91,10,8,2,21,12,25,0.02,8,Rain,257
2012-11-3,33,32,30,32,32,30,100,99,93,30.18,30.14,30.08,10,7,1,16,8,17,0.00,8,,43
2012-11-4,51,42,32,41,36,32,100,92,62,30.24,30.10,30.01,10,9,2,23,13,29,0.00,7,Rain,280
2012-11-5,60,45,30,41,35,30,100,80,48,30.21,30.01,29.83,10,8,0,30,9,44,0.00,6,Fog,245
2012-11-6,50,39,28,32,26,21,93,64,32,30.18,30.12,30.01,10,10,10,20,14,26,0.00,2,,277
2012-11-7,68,50,32,37,32,27,81,53,26,30.00,29.77,29.68,10,10,10,24,12,30,0.00,1,,243
2012-11-8,42,35,28,37,30,27,100,88,75,30.08,30.01,29.90,10,9,2,24,13,32,0.00,8,Rain,36
2012-11-9,28,26,23,27,25,19,100,98,86,29.97,29.85,29.75,10,4,0,33,20,40,3.45,7,Rain-Snow,99
2012-11-10,21,18,14,19,16,12,100,94,93,29.79,29.78,29.75,10,6,1,13,11,,1.97,8,Snow,8
2012-11-11,,,,,,,,,,,,,,,,,,,,,,
2012-11-12,,,,,,,,,,,,,,,,,,,,,,
2012-11-13,,,,,,,,,,,,,,,,,,,,,,
2012-11-14,,,,,,,,,,,,,,,,,,,,,,
2012-11-15,41,34,28,30,28,25,87,77,61,30.26,30.21,30.12,10,10,10,16,10,18,0.00,0,,159
2012-11-16,44,35,26,30,27,25,93,80,49,30.11,29.99,29.93,10,10,10,16,9,18,0.00,1,,179
2012-11-17,50,40,30,32,29,27,93,74,43,30.01,29.96,29.89,10,10,10,12,4,,0.00,3,Rain,176
2012-11-18,50,41,32,37,30,25,87,72,57,30.01,29.83,29.75,10,10,10,15,9,20,0.00,1,,174
2012-11-19,50,38,26,32,27,23,93,66,40,30.10,30.04,29.96,10,10,10,15,7,18,0.00,2,,180
2012-11-20,59,44,30,34,31,25,87,67,36,29.96,29.88,29.81,10,10,10,16,8,20,0.00,0,,189
2012-11-21,64,48,32,39,35,28,100,72,34,29.81,29.71,29.58,10,10,9,21,7,25,0.00,2,,212
2012-11-22,37,24,10,37,19,7,100,85,73,30.49,30.17,29.78,10,9,2,31,17,39,0.51,6,Rain-Snow,308
2012-11-23,32,20,8,19,14,5,92,74,55,30.49,30.29,29.98,10,10,10,17,8,20,0.00,3,,173
2012-11-24,44,34,23,34,26,19,100,78,56,30.00,29.90,29.83,10,10,9,22,10,32,18.21,4,Rain,273
2012-11-25,28,16,5,27,16,1,100,92,79,30.26,30.08,29.98,10,10,2,15,8,16,5.98,4,Rain-Snow,312
2012-11-26,35,20,5,25,17,1,100,84,65,30.29,30.21,30.08,10,10,10,20,8,25,18.27,2,Rain-Snow,233
2012-11-27,32,23,14,25,19,12,100,85,55,30.16,30.11,30.06,10,10,10,12,7,,10.94,0,Rain-Snow,242
2012-11-28,41,28,15,23,19,14,100,77,42,30.12,30.00,29.94,10,10,10,10,6,,14.16,0,Rain-Snow,184
2012-11-29,28,22,17,23,20,16,100,92,80,29.95,29.90,29.87,10,8,5,21,11,24,0.00,3,,138
2012-11-30,44,32,21,32,26,19,100,80,57,29.91,29.73,29.62,10,10,10,15,8,22,0.00,1,Rain,162